createdAt,value
2022-09-07T00:00:22.167Z,78.79
2022-09-07T00:01:22.332Z,78.79
2022-09-07T00:02:22.203Z,78.72
2022-09-07T00:03:22.311Z,78.74
2022-09-07T00:04:22.180Z,78.73
2022-09-07T00:05:22.123Z,78.62
2022-09-07T00:06:22.129Z,78.67
2022-09-07T00:07:22.286Z,78.62
2022-09-07T00:08:29.731Z,78.58
2022-09-07T00:09:22.067Z,78.67
2022-09-07T00:10:22.057Z,78.65
2022-09-07T00:11:22.045Z,78.67
2022-09-07T00:12:22.039Z,78.60
2022-09-07T00:13:22.363Z,78.69
2022-09-07T00:14:22.026Z,78.65
2022-09-07T00:15:22.014Z,78.70
2022-09-07T00:16:22.051Z,78.67
2022-09-07T00:17:21.994Z,78.71
2022-09-07T00:18:21.968Z,78.71
2022-09-07T00:19:22.118Z,78.79
2022-09-07T00:20:21.947Z,78.87
2022-09-07T00:21:21.938Z,78.91
2022-09-07T00:22:21.926Z,78.93
2022-09-07T00:23:21.928Z,78.90
2022-09-07T00:24:21.944Z,78.90
2022-09-07T00:25:22.211Z,78.89
2022-09-07T00:26:21.905Z,78.95
2022-09-07T00:27:21.889Z,78.95
2022-09-07T00:28:21.889Z,78.93
2022-09-07T00:29:21.863Z,78.78
2022-09-07T00:30:21.872Z,78.76
2022-09-07T00:31:22.302Z,78.80
2022-09-07T00:32:21.832Z,78.75
2022-09-07T00:33:21.835Z,78.77
2022-09-07T00:34:21.808Z,78.81
2022-09-07T00:35:21.801Z,78.83
2022-09-07T00:36:21.791Z,78.79
2022-09-07T00:37:24.638Z,78.78
2022-09-07T00:38:21.765Z,78.73
2022-09-07T00:39:21.757Z,78.74
2022-09-07T00:40:22.103Z,78.69
2022-09-07T00:41:21.739Z,78.69
2022-09-07T00:42:21.728Z,78.69
2022-09-07T00:43:21.719Z,78.59
2022-09-07T00:44:21.731Z,78.67
2022-09-07T00:45:21.711Z,78.64
2022-09-07T00:46:21.892Z,78.70
2022-09-07T00:47:21.670Z,78.82
2022-09-07T00:48:21.869Z,78.99
2022-09-07T00:49:21.670Z,78.93
2022-09-07T00:50:21.629Z,79.00
2022-09-07T00:51:21.628Z,79.01
2022-09-07T00:52:21.630Z,79.05
2022-09-07T00:53:21.608Z,79.09
2022-09-07T00:54:21.778Z,79.02
2022-09-07T00:55:21.592Z,78.99
2022-09-07T00:56:21.586Z,78.92
2022-09-07T00:57:21.569Z,78.94
2022-09-07T00:58:21.553Z,78.93
2022-09-07T00:59:21.568Z,78.90
2022-09-07T01:00:21.701Z,78.82
2022-09-07T01:01:21.587Z,78.72
2022-09-07T01:02:21.656Z,78.68
2022-09-07T01:03:21.498Z,78.71
2022-09-07T01:04:21.483Z,78.79
2022-09-07T01:05:21.489Z,78.91
2022-09-07T01:06:21.712Z,78.77
2022-09-07T01:07:21.475Z,78.67
2022-09-07T01:08:21.450Z,78.62
2022-09-07T01:09:21.438Z,78.70
2022-09-07T01:10:21.441Z,78.70
2022-09-07T01:11:21.411Z,78.70
2022-09-07T01:12:21.741Z,78.73
2022-09-07T01:13:21.391Z,78.80
2022-09-07T01:14:21.385Z,78.95
2022-09-07T01:15:21.362Z,79.05
2022-09-07T01:16:21.389Z,79.02
2022-09-07T01:17:21.352Z,79.05
2022-09-07T01:18:21.689Z,79.11
2022-09-07T01:19:21.351Z,79.23
2022-09-07T01:20:21.320Z,79.31
2022-09-07T01:21:21.300Z,79.42
2022-09-07T01:22:21.296Z,79.42
2022-09-07T01:23:21.293Z,79.32
2022-09-07T01:24:21.600Z,79.38
2022-09-07T01:25:21.261Z,79.38
2022-09-07T01:26:21.256Z,79.40
2022-09-07T01:27:21.229Z,79.37
2022-09-07T01:28:21.223Z,79.40
2022-09-07T01:29:21.214Z,79.40
2022-09-07T01:30:21.441Z,79.48
2022-09-07T01:31:21.255Z,79.57
2022-09-07T01:32:21.180Z,79.64
2022-09-07T01:33:21.172Z,79.63
2022-09-07T01:34:21.171Z,79.57
2022-09-07T01:35:21.159Z,79.38
2022-09-07T01:36:21.298Z,79.25
2022-09-07T01:37:21.133Z,79.25
2022-09-07T01:38:21.121Z,79.33
2022-09-07T01:39:21.116Z,79.32
2022-09-07T01:40:21.109Z,79.38
2022-09-07T01:41:21.083Z,79.29
2022-09-07T01:42:21.317Z,79.26
2022-09-07T01:43:21.055Z,79.30
2022-09-07T01:44:21.082Z,79.32
2022-09-07T01:45:21.038Z,79.23
2022-09-07T01:46:21.047Z,79.15
2022-09-07T01:47:21.023Z,79.14
2022-09-07T01:48:21.178Z,79.25
2022-09-07T01:49:20.998Z,79.32
2022-09-07T01:50:20.994Z,79.43
2022-09-07T01:51:20.990Z,79.52
2022-09-07T01:52:20.965Z,79.50
2022-09-07T01:53:20.945Z,79.64
2022-09-07T01:54:21.278Z,79.71
2022-09-07T01:55:20.932Z,79.68
2022-09-07T01:56:20.932Z,79.74
2022-09-07T01:57:20.913Z,79.73
2022-09-07T01:58:20.924Z,79.72
2022-09-07T01:59:20.884Z,79.95
2022-09-07T02:00:21.133Z,79.96
2022-09-07T02:01:20.939Z,79.96
2022-09-07T02:02:20.934Z,79.88
2022-09-07T02:03:20.854Z,79.98
2022-09-07T02:04:20.844Z,79.95
2022-09-07T02:05:20.824Z,79.97
2022-09-07T02:06:20.991Z,79.93
2022-09-07T02:07:20.809Z,79.88
2022-09-07T02:08:20.800Z,79.93
2022-09-07T02:09:20.796Z,79.86
2022-09-07T02:10:20.783Z,79.97
2022-09-07T02:11:20.765Z,80.02
2022-09-07T02:12:20.920Z,80.14
2022-09-07T02:13:20.736Z,80.06
2022-09-07T02:14:20.733Z,80.12
2022-09-07T02:15:20.731Z,80.10
2022-09-07T02:16:20.778Z,80.17
2022-09-07T02:17:20.707Z,80.16
2022-09-07T02:18:20.911Z,80.15
2022-09-07T02:19:20.701Z,80.21
2022-09-07T02:20:20.666Z,80.32
2022-09-07T02:21:20.673Z,80.37
2022-09-07T02:22:20.646Z,80.34
2022-09-07T02:23:20.635Z,80.26
2022-09-07T02:24:20.834Z,80.23
2022-09-07T02:25:20.606Z,80.24
2022-09-07T02:26:20.597Z,80.18
2022-09-07T02:27:20.595Z,80.08
2022-09-07T02:28:20.586Z,80.18
2022-09-07T02:29:20.573Z,80.12
2022-09-07T02:30:20.725Z,80.15
2022-09-07T02:31:20.642Z,80.03
2022-09-07T02:32:20.533Z,79.94
2022-09-07T02:33:20.522Z,79.94
2022-09-07T02:34:20.518Z,79.89
2022-09-07T02:35:20.501Z,79.82
2022-09-07T02:36:20.830Z,79.67
2022-09-07T02:37:20.487Z,79.67
2022-09-07T02:38:20.487Z,79.75
2022-09-07T02:39:20.457Z,79.83
2022-09-07T02:40:20.457Z,80.07
2022-09-07T02:41:20.455Z,80.12
2022-09-07T02:42:20.729Z,80.19
2022-09-07T02:43:20.435Z,80.29
2022-09-07T02:44:20.405Z,80.26
2022-09-07T02:45:20.409Z,80.13
2022-09-07T02:46:20.437Z,80.10
2022-09-07T02:47:20.380Z,80.33
2022-09-07T02:48:20.702Z,80.36
2022-09-07T02:49:20.346Z,80.27
2022-09-07T02:50:20.337Z,80.31
2022-09-07T02:51:20.338Z,80.38
2022-09-07T02:52:20.325Z,80.35
2022-09-07T02:53:20.347Z,80.35
2022-09-07T02:54:20.746Z,80.35
2022-09-07T02:55:20.299Z,80.33
2022-09-07T02:56:20.292Z,80.32
2022-09-07T02:57:20.263Z,80.31
2022-09-07T02:58:20.255Z,80.36
2022-09-07T02:59:20.247Z,80.33
2022-09-07T03:00:20.396Z,80.45
2022-09-07T03:01:20.311Z,80.52
2022-09-07T03:02:20.281Z,80.53
2022-09-07T03:03:20.206Z,80.56
2022-09-07T03:04:20.186Z,80.58
2022-09-07T03:05:20.182Z,80.55
2022-09-07T03:06:20.323Z,80.56
2022-09-07T03:07:20.157Z,80.51
2022-09-07T03:08:20.163Z,80.54
2022-09-07T03:09:20.131Z,80.49
2022-09-07T03:10:20.140Z,80.40
2022-09-07T03:11:20.115Z,80.43
2022-09-07T03:12:20.257Z,80.45
2022-09-07T03:13:20.098Z,80.43
2022-09-07T03:14:20.081Z,80.37
2022-09-07T03:15:20.070Z,80.29
2022-09-07T03:16:20.137Z,80.31
2022-09-07T03:17:20.049Z,80.41
2022-09-07T03:18:20.203Z,80.29
2022-09-07T03:19:20.031Z,80.29
2022-09-07T03:20:20.026Z,80.29
2022-09-07T03:21:19.999Z,80.17
2022-09-07T03:22:19.986Z,80.29
2022-09-07T03:23:19.987Z,80.36
2022-09-07T03:24:20.147Z,80.31
2022-09-07T03:25:19.983Z,80.33
2022-09-07T03:26:19.966Z,80.52
2022-09-07T03:27:19.950Z,80.49
2022-09-07T03:28:19.919Z,80.56
2022-09-07T03:29:19.927Z,80.49
2022-09-07T03:30:20.137Z,80.46
2022-09-07T03:31:19.944Z,80.53
2022-09-07T03:32:19.889Z,80.50
2022-09-07T03:33:19.889Z,80.45
2022-09-07T03:34:19.894Z,80.42
2022-09-07T03:35:19.858Z,80.44
2022-09-07T03:36:20.081Z,80.53
2022-09-07T03:37:19.833Z,80.51
2022-09-07T03:38:19.846Z,80.55
2022-09-07T03:39:19.816Z,80.61
2022-09-07T03:40:19.801Z,80.62
2022-09-07T03:41:19.788Z,80.85
2022-09-07T03:42:19.954Z,80.85
2022-09-07T03:43:19.769Z,80.72
2022-09-07T03:44:19.770Z,80.80
2022-09-07T03:45:19.747Z,80.83
2022-09-07T03:46:19.809Z,80.60
2022-09-07T03:47:19.888Z,80.62
2022-09-07T03:48:19.724Z,80.60
2022-09-07T03:49:19.735Z,80.71
2022-09-07T03:50:19.688Z,80.67
2022-09-07T03:51:19.688Z,80.67
2022-09-07T03:52:19.687Z,80.69
2022-09-07T03:53:19.830Z,80.71
2022-09-07T03:54:19.659Z,80.67
2022-09-07T03:55:19.638Z,80.57
2022-09-07T03:56:19.645Z,80.73
2022-09-07T03:57:19.620Z,80.77
2022-09-07T03:58:19.624Z,80.78
2022-09-07T03:59:19.921Z,80.74
2022-09-07T04:00:19.599Z,80.73
2022-09-07T04:01:19.644Z,80.76
2022-09-07T04:02:19.624Z,80.73
2022-09-07T04:03:19.554Z,80.54
2022-09-07T04:04:19.546Z,80.50
2022-09-07T04:05:19.743Z,80.47
2022-09-07T04:06:19.541Z,80.54
2022-09-07T04:07:19.535Z,80.51
2022-09-07T04:08:19.500Z,80.50
2022-09-07T04:09:19.490Z,80.69
2022-09-07T04:10:19.479Z,80.45
2022-09-07T04:11:19.628Z,80.48
2022-09-07T04:12:19.462Z,80.50
2022-09-07T04:13:19.449Z,80.42
2022-09-07T04:14:19.437Z,80.54
2022-09-07T04:15:19.426Z,80.45
2022-09-07T04:16:19.500Z,80.44
2022-09-07T04:17:19.568Z,80.43
2022-09-07T04:18:19.413Z,80.32
2022-09-07T04:19:19.380Z,80.47
2022-09-07T04:20:19.372Z,80.39
2022-09-07T04:21:19.363Z,80.34
2022-09-07T04:22:19.360Z,80.37
2022-09-07T04:23:19.511Z,80.47
2022-09-07T04:24:19.327Z,80.51
2022-09-07T04:25:19.321Z,80.55
2022-09-07T04:26:19.310Z,80.72
2022-09-07T04:27:19.301Z,80.69
2022-09-07T04:28:19.301Z,80.70
2022-09-07T04:29:19.443Z,80.78
2022-09-07T04:30:19.261Z,80.86
2022-09-07T04:31:19.310Z,80.80
2022-09-07T04:32:19.245Z,80.84
2022-09-07T04:33:19.240Z,80.65
2022-09-07T04:34:19.216Z,80.79
2022-09-07T04:35:19.639Z,80.91
2022-09-07T04:36:19.208Z,80.84
2022-09-07T04:37:19.183Z,80.83
2022-09-07T04:38:19.183Z,80.76
2022-09-07T04:39:19.179Z,80.70
2022-09-07T04:40:19.147Z,80.70
2022-09-07T04:41:19.321Z,80.74
2022-09-07T04:42:19.148Z,80.69
2022-09-07T04:43:19.135Z,80.74
2022-09-07T04:44:19.121Z,80.70
2022-09-07T04:45:19.098Z,80.73
2022-09-07T04:46:19.186Z,80.66
2022-09-07T04:47:19.254Z,80.68
2022-09-07T04:48:19.061Z,80.66
2022-09-07T04:49:19.064Z,80.68
2022-09-07T04:50:19.050Z,80.70
2022-09-07T04:51:19.035Z,80.64
2022-09-07T04:52:19.035Z,80.65
2022-09-07T04:53:19.183Z,80.61
2022-09-07T04:54:19.002Z,80.52
2022-09-07T04:55:19.011Z,80.54
2022-09-07T04:56:18.995Z,80.57
2022-09-07T04:57:18.984Z,80.62
2022-09-07T04:58:18.961Z,80.64
2022-09-07T04:59:19.292Z,80.56
2022-09-07T05:00:18.934Z,80.51
2022-09-07T05:01:24.393Z,80.61
2022-09-07T05:02:19.972Z,80.59
2022-09-07T05:03:18.922Z,80.52
2022-09-07T05:04:18.983Z,80.52
2022-09-07T05:05:19.061Z,80.58
2022-09-07T05:06:18.915Z,80.54
2022-09-07T05:07:18.867Z,80.57
2022-09-07T05:08:18.948Z,80.67
2022-09-07T05:09:18.857Z,80.60
2022-09-07T05:10:18.832Z,80.69
2022-09-07T05:11:19.383Z,80.75
2022-09-07T05:12:18.852Z,80.77
2022-09-07T05:13:18.875Z,80.74
2022-09-07T05:14:18.789Z,80.82
2022-09-07T05:15:18.797Z,80.79
2022-09-07T05:16:18.825Z,80.79
2022-09-07T05:17:18.952Z,80.73
2022-09-07T05:18:18.754Z,80.72
2022-09-07T05:19:18.770Z,80.78
2022-09-07T05:20:20.360Z,80.70
2022-09-07T05:21:18.749Z,80.59
2022-09-07T05:22:18.702Z,80.55
2022-09-07T05:23:18.975Z,80.39
2022-09-07T05:24:18.675Z,80.19
2022-09-07T05:25:18.670Z,80.05
2022-09-07T05:26:18.662Z,79.86
2022-09-07T05:27:18.668Z,79.74
2022-09-07T05:28:19.508Z,79.62
2022-09-07T05:31:20.235Z,79.44
2022-09-07T05:32:18.616Z,79.25
2022-09-07T05:33:18.577Z,79.19
2022-09-07T05:34:33.996Z,79.27
2022-09-07T05:35:19.995Z,79.23
2022-09-07T05:36:18.623Z,79.10
2022-09-07T05:37:18.542Z,79.04
2022-09-07T05:38:18.544Z,79.18
2022-09-07T05:39:18.580Z,79.09
2022-09-07T05:40:18.550Z,79.22
2022-09-07T05:41:18.676Z,79.31
2022-09-07T05:42:18.474Z,79.21
2022-09-07T05:43:18.535Z,79.24
2022-09-07T05:45:19.461Z,79.38
2022-09-07T05:46:18.504Z,79.58
2022-09-07T05:47:18.685Z,79.59
2022-09-07T05:48:18.434Z,79.53
2022-09-07T05:49:18.474Z,79.58
2022-09-07T05:50:18.411Z,79.58
2022-09-07T05:51:18.403Z,79.62
2022-09-07T05:52:18.554Z,79.52
2022-09-07T05:53:18.395Z,79.40
2022-09-07T05:54:18.368Z,79.44
2022-09-07T05:55:29.900Z,79.45
2022-09-07T05:56:19.423Z,79.69
2022-09-07T05:57:18.335Z,79.64
2022-09-07T05:58:18.549Z,79.68
2022-09-07T05:59:18.316Z,79.67
2022-09-07T06:00:18.379Z,79.71
2022-09-07T06:01:18.307Z,79.67
2022-09-07T06:02:18.435Z,79.62
2022-09-07T06:03:18.402Z,79.67
2022-09-07T06:04:18.441Z,79.81
2022-09-07T06:05:18.255Z,79.85
2022-09-07T06:06:18.259Z,79.89
2022-09-07T06:07:22.034Z,79.99
2022-09-07T06:08:18.221Z,79.90
2022-09-07T06:09:18.227Z,79.88
2022-09-07T06:11:19.217Z,79.77
2022-09-07T06:12:18.348Z,79.73
2022-09-07T06:13:18.179Z,79.85
2022-09-07T06:14:18.240Z,80.06
2022-09-07T06:15:18.551Z,80.08
2022-09-07T06:16:18.166Z,79.90
2022-09-07T06:17:18.139Z,79.73
2022-09-07T06:18:18.118Z,79.71
2022-09-07T06:19:18.098Z,79.65
2022-09-07T06:20:18.089Z,79.74
2022-09-07T06:21:18.279Z,79.78
2022-09-07T06:22:18.071Z,79.70
2022-09-07T06:23:18.057Z,79.75
2022-09-07T06:24:18.018Z,79.71
2022-09-07T06:25:18.124Z,79.67
2022-09-07T06:26:18.017Z,79.80
2022-09-07T06:27:18.171Z,79.86
2022-09-07T06:28:18.044Z,79.88
2022-09-07T06:29:18.017Z,80.18
2022-09-07T06:30:17.969Z,80.39
2022-09-07T06:31:18.092Z,80.60
2022-09-07T06:33:21.908Z,80.79
2022-09-07T06:34:17.934Z,80.75
2022-09-07T06:35:17.910Z,80.91
2022-09-07T06:36:17.944Z,80.99
2022-09-07T06:37:17.901Z,80.67
2022-09-07T06:38:17.874Z,80.51
2022-09-07T06:39:18.071Z,80.58
2022-09-07T06:40:17.851Z,80.66
2022-09-07T06:42:18.840Z,80.84
2022-09-07T06:43:17.823Z,80.97
2022-09-07T06:44:17.923Z,80.86
2022-09-07T06:45:18.021Z,80.88
2022-09-07T06:47:18.784Z,80.58
2022-09-07T06:48:17.805Z,80.11
2022-09-07T06:49:17.760Z,80.04
2022-09-07T06:50:17.831Z,79.55
2022-09-07T06:51:18.109Z,79.41
2022-09-07T06:52:17.732Z,79.19
2022-09-07T06:55:18.700Z,79.43
2022-09-07T06:56:17.763Z,79.46
2022-09-07T06:57:17.858Z,79.42
2022-09-07T06:58:17.682Z,79.12
2022-09-07T06:59:17.654Z,79.01
2022-09-07T07:00:17.639Z,78.65
2022-09-07T07:01:17.789Z,78.59
2022-09-07T07:02:17.620Z,78.38
2022-09-07T07:03:17.835Z,78.21
2022-09-07T07:04:17.681Z,78.15
2022-09-07T07:05:17.591Z,78.14
2022-09-07T07:06:17.613Z,78.04
2022-09-07T07:07:17.576Z,78.06
2022-09-07T07:08:17.559Z,78.06
2022-09-07T07:09:17.754Z,78.00
2022-09-07T07:10:22.192Z,77.99
2022-09-07T07:11:18.533Z,77.99
2022-09-07T07:13:49.523Z,77.17
2022-09-07T07:14:49.670Z,77.80
2022-09-07T07:15:49.486Z,77.64
2022-09-07T07:16:49.516Z,77.66
2022-09-07T07:17:58.049Z,77.64
2022-09-07T07:18:50.486Z,77.59
2022-09-07T07:19:49.449Z,77.60
2022-09-07T07:20:49.482Z,77.63
2022-09-07T07:22:13.993Z,77.74
2022-09-07T07:22:50.416Z,77.82
2022-09-07T07:23:49.424Z,77.76
2022-09-07T07:24:49.403Z,77.80
2022-09-07T07:25:49.568Z,77.94
2022-09-07T07:26:49.365Z,77.91
2022-09-07T07:27:49.548Z,77.81
2022-09-07T07:29:04.768Z,77.87
2022-09-07T07:29:50.358Z,77.85
2022-09-07T07:30:49.324Z,77.80
2022-09-07T07:31:49.553Z,77.82
2022-09-07T07:32:49.305Z,77.84
2022-09-07T07:33:49.356Z,77.79
2022-09-07T07:34:49.284Z,77.74
2022-09-07T07:35:49.271Z,77.66
2022-09-07T07:36:49.265Z,77.62
2022-09-07T07:37:49.730Z,77.56
2022-09-07T07:39:04.812Z,77.54
2022-09-07T07:41:54.461Z,77.47
2022-09-07T07:42:50.359Z,77.50
2022-09-07T07:43:49.194Z,77.47
2022-09-07T07:44:49.241Z,77.46
2022-09-07T07:46:49.316Z,77.29
2022-09-07T07:47:49.165Z,77.38
2022-09-07T07:48:49.287Z,77.17
2022-09-07T07:49:49.639Z,77.11
2022-09-07T07:50:49.118Z,76.93
2022-09-07T07:52:50.557Z,76.90
2022-09-07T07:53:49.276Z,76.82
2022-09-07T07:54:49.078Z,76.77
2022-09-07T07:55:49.136Z,76.62
2022-09-07T07:56:51.792Z,76.56
2022-09-07T07:57:49.052Z,76.40
2022-09-07T07:58:49.027Z,76.35
2022-09-07T07:59:49.241Z,76.36
2022-09-07T08:00:56.885Z,76.45
2022-09-07T08:01:50.246Z,76.38
2022-09-07T08:02:49.093Z,76.24
2022-09-07T08:03:49.026Z,76.14
2022-09-07T08:04:48.994Z,76.08
2022-09-07T08:05:49.214Z,76.05
2022-09-07T08:06:48.964Z,76.04
2022-09-07T08:07:48.951Z,76.07
2022-09-07T08:08:48.921Z,76.11
2022-09-07T08:09:48.919Z,76.11
2022-09-07T08:10:48.939Z,76.10
2022-09-07T08:11:49.085Z,76.13
2022-09-07T08:12:48.891Z,76.09
2022-09-07T08:13:48.881Z,76.18
2022-09-07T08:14:48.858Z,76.24
2022-09-07T08:15:49.029Z,76.24
2022-09-07T08:16:48.831Z,76.19
2022-09-07T08:17:49.008Z,76.30
2022-09-07T08:18:48.882Z,76.51
2022-09-07T08:19:48.822Z,76.68
2022-09-07T08:20:48.806Z,76.82
2022-09-07T08:21:48.809Z,76.72
2022-09-07T08:22:48.905Z,76.57
2022-09-07T08:23:48.972Z,76.77
2022-09-07T08:24:48.841Z,76.85
2022-09-07T08:25:48.751Z,76.70
2022-09-07T08:26:48.740Z,76.05
2022-09-07T08:27:48.729Z,75.25
2022-09-07T08:28:48.730Z,74.47
2022-09-07T08:29:49.084Z,74.25
2022-09-07T08:30:48.703Z,74.17
2022-09-07T08:31:48.706Z,73.94
2022-09-07T08:32:48.700Z,73.98
2022-09-07T08:33:48.682Z,73.93
2022-09-07T08:34:48.650Z,73.89
2022-09-07T08:35:48.800Z,73.92
2022-09-07T08:36:48.739Z,73.92
2022-09-07T08:37:48.620Z,73.89
2022-09-07T08:38:48.603Z,74.31
2022-09-07T08:39:48.747Z,74.65
2022-09-07T08:40:48.764Z,74.79
2022-09-07T08:41:48.580Z,74.91
2022-09-07T08:42:48.566Z,74.59
2022-09-07T08:43:49.330Z,74.62
2022-09-07T08:44:48.557Z,74.49
2022-09-07T08:45:48.541Z,74.34
2022-09-07T08:46:48.706Z,74.14
2022-09-07T08:47:48.511Z,74.04
2022-09-07T08:48:48.585Z,73.94
2022-09-07T08:49:48.503Z,73.57
2022-09-07T08:50:48.502Z,73.60
2022-09-07T08:51:48.495Z,73.38
2022-09-07T08:52:48.623Z,73.14
2022-09-07T08:53:48.454Z,73.07
2022-09-07T08:54:48.433Z,72.77
2022-09-07T08:55:48.498Z,72.57
2022-09-07T08:57:50.133Z,72.70
2022-09-07T08:58:49.789Z,72.67
2022-09-07T08:59:48.398Z,72.87
2022-09-07T09:00:48.664Z,72.53
2022-09-07T09:02:27.112Z,72.94
2022-09-07T09:04:20.562Z,72.72
2022-09-07T09:05:19.531Z,72.58
2022-09-07T09:05:49.489Z,72.62
2022-09-07T09:06:48.503Z,72.52
2022-09-07T09:07:48.293Z,72.47
2022-09-07T09:08:48.506Z,72.53
2022-09-07T09:09:48.274Z,72.37
2022-09-07T09:10:48.261Z,72.47
2022-09-07T09:11:48.253Z,72.53
2022-09-07T09:12:48.237Z,72.36
2022-09-07T09:13:48.253Z,72.39
2022-09-07T09:14:48.391Z,72.28
2022-09-07T09:15:48.260Z,72.32
2022-09-07T09:16:48.194Z,72.20
2022-09-07T09:17:48.184Z,72.26
2022-09-07T09:18:48.230Z,72.52
2022-09-07T09:19:48.176Z,72.57
2022-09-07T09:20:48.307Z,72.51
2022-09-07T09:21:48.145Z,72.49
2022-09-07T09:22:48.146Z,72.38
2022-09-07T09:23:48.127Z,72.40
2022-09-07T09:24:48.105Z,72.20
2022-09-07T09:25:48.143Z,72.04
2022-09-07T09:26:48.420Z,71.82
2022-09-07T09:27:48.086Z,71.49
2022-09-07T09:28:48.080Z,71.13
2022-09-07T09:29:48.054Z,70.59
2022-09-07T09:30:48.092Z,71.00
2022-09-07T09:31:48.025Z,70.39
2022-09-07T09:32:48.201Z,70.06
2022-09-07T09:33:48.025Z,70.21
2022-09-07T09:34:47.995Z,69.57
2022-09-07T09:35:47.976Z,68.76
2022-09-07T09:36:47.987Z,68.40
2022-09-07T09:37:47.993Z,68.20
2022-09-07T09:38:48.199Z,67.94
2022-09-07T09:39:50.999Z,68.06
2022-09-07T09:40:48.978Z,67.92
2022-09-07T09:41:47.967Z,67.60
2022-09-07T09:42:47.915Z,67.39
2022-09-07T09:43:48.058Z,66.87
2022-09-07T09:44:47.896Z,66.91
2022-09-07T09:47:29.441Z,66.57
2022-09-07T09:47:48.887Z,66.82
2022-09-07T09:48:47.941Z,66.69
2022-09-07T09:49:48.071Z,66.33
2022-09-07T09:52:51.815Z,66.21
2022-09-07T09:53:47.812Z,66.27
2022-09-07T09:54:47.798Z,66.23
2022-09-07T09:55:47.917Z,65.99
2022-09-07T09:56:47.775Z,65.84
2022-09-07T09:59:04.775Z,66.04
2022-09-07T09:59:57.973Z,66.06
2022-09-07T10:03:56.718Z,64.82
2022-09-07T10:04:48.721Z,65.25
2022-09-07T10:05:47.677Z,65.53
2022-09-07T10:06:47.968Z,64.49
2022-09-07T10:07:47.649Z,63.89
2022-09-07T10:08:47.669Z,64.03
2022-09-07T10:09:47.629Z,64.41
2022-09-07T10:10:47.638Z,63.45
2022-09-07T10:12:48.812Z,63.63
2022-09-07T10:13:47.629Z,62.80
2022-09-07T10:14:47.584Z,63.02
2022-09-07T10:15:47.602Z,62.76
2022-09-07T10:16:47.564Z,62.48
2022-09-07T10:17:47.549Z,62.37
2022-09-07T10:18:47.702Z,62.23
2022-09-07T10:19:47.519Z,61.45
2022-09-07T10:20:47.574Z,60.59
2022-09-07T10:21:47.501Z,60.61
2022-09-07T10:22:51.310Z,60.85
2022-09-07T10:23:47.507Z,60.71
2022-09-07T10:24:47.666Z,61.82
2022-09-07T10:25:47.475Z,62.03
2022-09-07T10:26:47.482Z,61.03
2022-09-07T10:27:47.420Z,61.14
2022-09-07T10:29:48.599Z,61.19
2022-09-07T10:30:47.478Z,61.49
2022-09-07T10:31:47.404Z,61.40
2022-09-07T10:32:47.372Z,60.57
2022-09-07T10:34:25.760Z,60.41
2022-09-07T10:34:48.351Z,61.37
2022-09-07T10:35:47.868Z,61.38
2022-09-07T10:36:47.321Z,60.78
2022-09-07T10:37:47.331Z,60.95
2022-09-07T10:38:47.361Z,61.11
2022-09-07T10:39:47.386Z,61.23
2022-09-07T10:40:47.488Z,61.38
2022-09-07T10:41:47.285Z,61.07
2022-09-07T10:43:48.295Z,59.62
2022-09-07T10:44:47.237Z,59.03
2022-09-07T10:45:47.283Z,59.44
2022-09-07T10:47:02.702Z,58.93
2022-09-07T10:47:48.239Z,59.22
2022-09-07T10:48:47.205Z,58.69
2022-09-07T10:50:48.189Z,58.69
2022-09-07T10:51:47.153Z,58.45
2022-09-07T10:52:47.400Z,58.40
2022-09-07T10:53:47.237Z,57.92
2022-09-07T10:54:47.217Z,57.84
2022-09-07T10:55:47.121Z,57.46
2022-09-07T10:56:47.134Z,57.62
2022-09-07T10:57:49.268Z,57.42
2022-09-07T10:59:03.573Z,57.70
2022-09-07T11:00:48.081Z,57.21
2022-09-07T11:01:47.125Z,57.47
2022-09-07T11:03:24.995Z,57.51
2022-09-07T11:03:48.280Z,58.42
2022-09-07T11:04:47.093Z,57.70
2022-09-07T11:05:47.024Z,57.50
2022-09-07T11:06:47.022Z,57.54
2022-09-07T11:07:46.987Z,59.39
2022-09-07T11:09:48.240Z,57.71
2022-09-07T11:10:46.959Z,57.65
2022-09-07T11:12:03.476Z,57.71
2022-09-07T11:12:47.916Z,57.60
2022-09-07T11:14:09.333Z,58.84
2022-09-07T11:14:47.916Z,60.76
2022-09-07T11:15:47.172Z,58.39
2022-09-07T11:16:50.832Z,58.28
2022-09-07T11:17:50.719Z,57.97
2022-09-07T11:18:47.890Z,57.53
2022-09-07T11:19:46.906Z,57.43
2022-09-07T11:20:46.835Z,56.77
2022-09-07T11:22:02.344Z,56.47
2022-09-07T11:22:47.826Z,56.34
2022-09-07T11:23:46.855Z,56.30
2022-09-07T11:24:47.232Z,56.70
2022-09-07T11:25:46.878Z,56.51
2022-09-07T11:26:46.786Z,57.25
2022-09-07T11:27:46.959Z,56.86
2022-09-07T11:28:47.191Z,56.77
2022-09-07T11:29:46.746Z,56.63
2022-09-07T11:30:46.933Z,56.61
2022-09-07T11:31:46.757Z,56.15
2022-09-07T11:32:46.908Z,56.14
2022-09-07T11:34:23.825Z,56.19
2022-09-07T11:34:47.702Z,55.46
2022-09-07T11:35:46.666Z,55.47
2022-09-07T11:36:46.658Z,55.58
2022-09-07T11:37:46.676Z,55.41
2022-09-07T11:38:46.998Z,55.78
2022-09-07T11:39:46.670Z,55.63
2022-09-07T11:40:46.666Z,56.05
2022-09-07T11:41:46.597Z,55.77
2022-09-07T11:42:46.617Z,55.54
2022-09-07T11:43:46.646Z,55.18
2022-09-07T11:44:46.769Z,55.50
2022-09-07T11:45:46.569Z,56.97
2022-09-07T11:46:46.678Z,58.44
2022-09-07T11:47:46.548Z,58.38
2022-09-07T11:48:46.537Z,58.88
2022-09-07T11:49:51.990Z,58.74
2022-09-07T11:50:47.700Z,56.88
2022-09-07T11:51:46.523Z,56.58
2022-09-07T11:52:46.500Z,56.81
2022-09-07T11:53:46.491Z,57.05
2022-09-07T11:54:46.469Z,56.46
2022-09-07T11:55:46.471Z,55.78
2022-09-07T11:56:46.660Z,55.99
2022-09-07T11:57:46.477Z,57.17
2022-09-07T11:58:46.433Z,56.28
2022-09-07T11:59:46.422Z,55.76
2022-09-07T12:00:46.457Z,55.43
2022-09-07T12:01:46.399Z,55.62
2022-09-07T12:02:59.327Z,56.87
2022-09-07T12:03:47.455Z,57.75
2022-09-07T12:04:46.414Z,56.55
2022-09-07T12:05:46.426Z,56.28
2022-09-07T12:06:46.364Z,56.09
2022-09-07T12:10:03.424Z,56.18
2022-09-07T12:11:03.251Z,57.75
2022-09-07T12:12:03.240Z,57.51
2022-09-07T12:13:03.232Z,56.65
2022-09-07T12:14:03.390Z,58.70
2022-09-07T12:15:03.211Z,57.01
2022-09-07T12:16:03.275Z,56.87
2022-09-07T12:17:03.180Z,57.03
2022-09-07T12:18:03.308Z,57.60
2022-09-07T12:19:03.172Z,57.42
2022-09-07T12:20:03.375Z,57.36
2022-09-07T12:21:03.148Z,57.11
2022-09-07T12:22:03.141Z,57.11
2022-09-07T12:23:05.169Z,57.32
2022-09-07T12:24:03.158Z,57.03
2022-09-07T12:25:03.111Z,56.09
2022-09-07T12:26:03.303Z,56.06
2022-09-07T12:27:03.095Z,55.90
2022-09-07T12:28:03.099Z,56.00
2022-09-07T12:29:03.086Z,56.00
2022-09-07T12:30:03.057Z,55.69
2022-09-07T12:31:03.057Z,55.83
2022-09-07T12:33:04.138Z,56.59
2022-09-07T12:34:03.012Z,56.13
2022-09-07T12:35:03.005Z,55.18
2022-09-07T12:36:02.992Z,54.53
2022-09-07T12:37:03.011Z,54.20
2022-09-07T12:38:03.132Z,54.08
2022-09-07T12:39:02.953Z,54.36
2022-09-07T12:40:03.052Z,54.64
2022-09-07T12:41:02.953Z,54.39
2022-09-07T12:43:09.720Z,54.42
2022-09-07T12:44:03.912Z,54.40
2022-09-07T12:45:02.903Z,55.16
2022-09-07T12:46:02.929Z,54.76
2022-09-07T12:47:02.886Z,54.88
2022-09-07T12:48:04.527Z,54.97
2022-09-07T12:49:03.185Z,54.34
2022-09-07T12:50:02.925Z,54.24
2022-09-07T12:51:02.843Z,54.59
2022-09-07T12:52:11.416Z,54.68
2022-09-07T12:53:03.822Z,54.48
2022-09-07T12:54:02.785Z,54.86
2022-09-07T12:55:26.462Z,54.62
2022-09-07T12:56:19.177Z,54.22
2022-09-07T12:58:03.776Z,54.12
2022-09-07T12:59:02.765Z,54.72
2022-09-07T13:00:02.739Z,54.83
2022-09-07T13:01:05.584Z,53.74
2022-09-07T13:02:02.813Z,53.70
2022-09-07T13:03:03.914Z,54.26
2022-09-07T13:04:02.695Z,53.72
2022-09-07T13:05:02.705Z,53.14
2022-09-07T13:06:02.834Z,52.88
2022-09-07T13:07:03.125Z,54.09
2022-09-07T13:08:08.629Z,55.55
2022-09-07T13:09:03.653Z,55.53
2022-09-07T13:10:02.636Z,53.91
2022-09-07T13:11:02.622Z,55.66
2022-09-07T13:12:03.207Z,56.45
2022-09-07T13:13:03.652Z,54.55
2022-09-07T13:14:04.756Z,54.60
2022-09-07T13:15:02.586Z,54.06
2022-09-07T13:16:03.739Z,53.73
2022-09-07T13:17:18.028Z,55.30
2022-09-07T13:18:03.700Z,52.96
2022-09-07T13:19:02.649Z,55.20
2022-09-07T13:20:02.614Z,53.40
2022-09-07T13:21:02.511Z,54.62
2022-09-07T13:22:02.496Z,55.58
2022-09-07T13:23:03.658Z,53.93
2022-09-07T13:24:45.687Z,53.26
2022-09-07T13:25:03.473Z,53.20
2022-09-07T13:26:02.453Z,52.83
2022-09-07T13:27:02.458Z,55.70